createdAt,value
2019-05-15T00:01:28.599Z,23.60
2019-05-15T00:04:02.128Z,21.37
2019-05-15T00:06:35.794Z,22.30
2019-05-15T00:09:09.674Z,21.05
2019-05-15T00:11:43.356Z,22.85
2019-05-15T00:14:18.224Z,22.73
2019-05-15T00:16:51.918Z,20.23
2019-05-15T00:19:25.612Z,35.03
2019-05-15T00:21:59.184Z,25.88
2019-05-15T00:24:32.859Z,27.45
2019-05-15T00:27:08.203Z,27.58
2019-05-15T00:29:41.775Z,27.50
2019-05-15T00:32:15.536Z,21.95
2019-05-15T00:34:49.212Z,25.12
2019-05-15T00:37:23.653Z,25.08
2019-05-15T00:39:59.193Z,22.67
2019-05-15T00:42:32.750Z,24.43
2019-05-15T00:45:09.721Z,27.17
2019-05-15T00:47:44.303Z,25.48
2019-05-15T00:50:18.531Z,25.08
2019-05-15T00:52:52.244Z,22.60
2019-05-15T00:55:25.932Z,21.70
2019-05-15T00:57:59.602Z,19.30
2019-05-15T01:00:48.498Z,23.20
2019-05-15T01:03:22.561Z,27.55
2019-05-15T01:05:58.496Z,21.52
2019-05-15T01:08:31.592Z,20.62
2019-05-15T01:11:05.147Z,20.70
2019-05-15T01:13:39.136Z,20.00
2019-05-15T01:16:14.419Z,21.00
2019-05-15T01:18:49.170Z,22.82
2019-05-15T01:21:22.859Z,17.67
2019-05-15T01:23:58.825Z,21.42
2019-05-15T01:26:31.802Z,22.02
2019-05-15T01:29:05.382Z,22.17
2019-05-15T01:31:39.041Z,22.00
2019-05-15T01:34:13.643Z,22.22
2019-05-15T01:36:48.932Z,21.87
2019-05-15T01:39:22.883Z,22.13
2019-05-15T01:41:58.425Z,21.35
2019-05-15T01:44:31.762Z,22.42
2019-05-15T01:47:05.310Z,24.00
2019-05-15T01:49:38.911Z,23.55
2019-05-15T01:52:12.590Z,23.67
2019-05-15T01:54:48.709Z,21.37
2019-05-15T01:57:21.902Z,19.70
2019-05-15T01:59:58.267Z,21.90
2019-05-15T02:02:31.204Z,21.20
2019-05-15T02:05:05.600Z,19.85
2019-05-15T02:07:39.411Z,18.60
2019-05-15T02:10:14.135Z,19.30
2019-05-15T02:12:48.161Z,18.50
2019-05-15T02:15:21.933Z,18.52
2019-05-15T02:17:55.649Z,19.57
2019-05-15T02:20:29.330Z,17.40
2019-05-15T02:23:03.008Z,18.23
2019-05-15T02:25:38.742Z,17.65
2019-05-15T02:28:12.649Z,20.43
2019-05-15T02:30:50.086Z,17.70
2019-05-15T02:33:22.160Z,18.62
2019-05-15T02:35:55.865Z,19.40
2019-05-15T02:38:29.934Z,19.12
2019-05-15T02:41:03.803Z,20.00
2019-05-15T02:43:39.016Z,21.73
2019-05-15T02:46:12.764Z,19.27
2019-05-15T02:48:48.945Z,19.05
2019-05-15T02:51:22.530Z,19.70
2019-05-15T02:53:58.581Z,20.20
2019-05-15T02:56:31.542Z,19.02
2019-05-15T02:59:05.210Z,17.30
2019-05-15T03:08:49.570Z,18.70
2019-05-15T03:11:23.301Z,16.75
2019-05-15T03:13:59.269Z,19.67
2019-05-15T03:16:32.008Z,19.30
2019-05-15T03:19:05.604Z,18.70
2019-05-15T03:21:40.317Z,16.67
2019-05-15T03:24:13.972Z,13.80
2019-05-15T03:26:49.655Z,15.63
2019-05-15T03:29:22.914Z,18.35
2019-05-15T03:32:13.422Z,18.55
2019-05-15T03:34:38.008Z,15.85
2019-05-15T03:37:11.636Z,13.68
2019-05-15T03:39:46.075Z,16.40
2019-05-15T03:42:19.109Z,12.55
2019-05-15T03:44:52.855Z,12.50
2019-05-15T03:47:29.949Z,13.85
2019-05-15T03:50:02.816Z,16.55
2019-05-15T03:52:39.477Z,18.87
2019-05-15T03:55:11.786Z,16.67
2019-05-15T03:57:45.378Z,12.98
2019-05-15T04:00:20.171Z,11.43
2019-05-15T04:02:53.752Z,8.53
2019-05-15T04:05:29.356Z,10.25
2019-05-15T04:08:02.525Z,11.43
2019-05-15T04:10:39.467Z,11.97
2019-05-15T04:13:14.512Z,12.70
2019-05-15T04:15:50.249Z,12.60
2019-05-15T04:18:23.769Z,14.95
2019-05-15T04:21:00.011Z,10.98
2019-05-15T04:23:32.833Z,16.93
2019-05-15T04:26:09.157Z,21.02
2019-05-15T04:28:43.733Z,17.10
2019-05-15T04:31:19.406Z,16.87
2019-05-15T04:33:52.506Z,21.57
2019-05-15T04:36:29.380Z,22.07
2019-05-15T04:39:01.306Z,24.47
2019-05-15T04:41:39.041Z,24.45
2019-05-15T04:44:11.490Z,26.80
2019-05-15T04:46:45.079Z,26.80
2019-05-15T04:49:19.268Z,25.37
2019-05-15T04:51:54.103Z,29.98
2019-05-15T04:54:28.842Z,29.20
2019-05-15T04:57:02.594Z,27.82
2019-05-15T04:59:38.739Z,31.00
2019-05-15T05:02:16.886Z,36.13
2019-05-15T05:04:49.319Z,34.85
2019-05-15T05:07:23.251Z,35.98
2019-05-15T05:09:59.438Z,39.58
2019-05-15T05:12:32.053Z,40.90
2019-05-15T05:15:08.444Z,45.17
2019-05-15T05:17:41.692Z,44.48
2019-05-15T05:20:17.919Z,45.95
2019-05-15T05:22:51.670Z,44.55
2019-05-15T05:25:25.216Z,40.63
2019-05-15T05:27:58.798Z,44.85
2019-05-15T05:30:32.483Z,45.70
2019-05-15T05:33:09.085Z,48.28
2019-05-15T05:35:42.980Z,44.63
2019-05-15T05:38:19.011Z,41.25
2019-05-15T05:43:40.602Z,46.33
2019-05-15T05:46:14.162Z,39.78
2019-05-15T05:48:48.941Z,47.62
2019-05-15T05:51:22.640Z,40.12
2019-05-15T05:53:56.193Z,41.28
2019-05-15T05:56:29.910Z,40.65
2019-05-15T05:59:05.761Z,43.17
2019-05-15T06:01:48.400Z,46.18
2019-05-15T06:04:21.594Z,39.27
2019-05-15T06:07:07.173Z,35.50
2019-05-15T06:09:30.907Z,35.50
2019-05-15T06:12:04.500Z,31.25
2019-05-15T06:14:38.191Z,30.10
2019-05-15T06:17:11.713Z,32.85
2019-05-15T06:19:45.334Z,36.17
2019-05-15T06:22:19.445Z,33.67
2019-05-15T06:24:53.024Z,32.63
2019-05-15T06:27:27.988Z,32.33
2019-05-15T06:30:03.110Z,30.57
2019-05-15T06:32:39.475Z,31.62
2019-05-15T06:35:12.519Z,27.00
2019-05-15T06:37:48.405Z,29.67
2019-05-15T06:40:22.259Z,26.97
2019-05-15T06:42:55.653Z,27.87
2019-05-15T06:45:29.221Z,29.10
2019-05-15T06:48:02.773Z,28.77
2019-05-15T06:50:40.072Z,19.55
2019-05-15T06:53:13.550Z,21.25
2019-05-15T06:55:48.916Z,19.57
2019-05-15T06:58:25.139Z,20.80
2019-05-15T07:00:59.283Z,20.88
2019-05-15T07:03:33.083Z,17.40
2019-05-15T07:06:09.078Z,17.62
2019-05-15T07:08:41.882Z,19.32
2019-05-15T07:11:16.134Z,24.95
2019-05-15T07:13:49.835Z,19.92
2019-05-15T07:16:23.467Z,21.02
2019-05-15T07:18:59.844Z,23.62
2019-05-15T07:21:33.448Z,23.67
2019-05-15T07:24:09.157Z,46.63
2019-05-15T07:26:42.291Z,21.60
2019-05-15T07:29:15.831Z,19.40
2019-05-15T07:31:49.629Z,23.47
2019-05-15T07:34:24.223Z,38.02
2019-05-15T07:36:59.122Z,28.12
2019-05-15T07:39:32.938Z,18.75
2019-05-15T07:42:08.426Z,51.10
2019-05-15T07:44:41.726Z,21.23
2019-05-15T07:47:15.463Z,17.10
2019-05-15T07:49:49.373Z,20.12
2019-05-15T07:52:22.940Z,17.70
2019-05-15T07:54:58.190Z,21.90
2019-05-15T07:57:32.072Z,21.30
2019-05-15T08:00:12.242Z,23.18
2019-05-15T08:02:47.845Z,23.30
2019-05-15T08:05:21.382Z,18.82
2019-05-15T08:07:54.926Z,24.25
2019-05-15T08:10:28.722Z,17.85
2019-05-15T08:13:02.422Z,22.95
2019-05-15T08:15:38.075Z,22.80
2019-05-15T08:18:12.930Z,19.02
2019-05-15T08:20:49.038Z,22.27
2019-05-15T08:23:22.413Z,27.42
2019-05-15T08:25:57.907Z,25.57
2019-05-15T08:28:31.622Z,27.07
2019-05-15T08:31:09.238Z,27.98
2019-05-15T08:33:40.504Z,44.88
2019-05-15T08:36:14.202Z,29.77
2019-05-15T08:38:48.564Z,31.20
2019-05-15T08:41:22.372Z,42.30
2019-05-15T08:43:57.895Z,29.65
2019-05-15T08:46:31.563Z,37.05
2019-05-15T08:49:05.271Z,32.33
2019-05-15T08:51:39.795Z,36.05
2019-05-15T08:54:13.362Z,24.15
2019-05-15T08:56:48.427Z,25.17
2019-05-15T08:59:22.093Z,38.85
2019-05-15T09:01:55.686Z,28.17
2019-05-15T09:04:34.455Z,30.37
2019-05-15T09:07:04.739Z,29.63
2019-05-15T09:09:38.530Z,29.80
2019-05-15T09:12:12.143Z,22.07
2019-05-15T09:14:45.761Z,17.67
2019-05-15T09:17:19.439Z,22.80
2019-05-15T09:19:56.022Z,23.83
2019-05-15T09:22:29.174Z,27.27
2019-05-15T09:25:03.024Z,22.95
2019-05-15T09:27:38.282Z,22.90
2019-05-15T09:30:13.636Z,31.85
2019-05-15T09:32:48.403Z,27.13
2019-05-15T09:35:23.102Z,24.43
2019-05-15T09:37:58.339Z,25.12
2019-05-15T09:40:45.254Z,27.98
2019-05-15T09:43:10.919Z,25.72
2019-05-15T09:45:44.065Z,26.20
2019-05-15T09:48:19.758Z,26.12
2019-05-15T09:50:54.083Z,29.57
2019-05-15T09:53:28.462Z,27.50
2019-05-15T09:56:02.372Z,30.55
2019-05-15T09:58:38.126Z,29.70
2019-05-15T10:01:13.165Z,27.07
2019-05-15T10:03:48.407Z,22.42
2019-05-15T10:06:22.160Z,26.68
2019-05-15T10:08:55.875Z,25.62
2019-05-15T10:11:30.469Z,20.37
2019-05-15T10:14:04.081Z,21.48
2019-05-15T10:16:38.667Z,25.35
2019-05-15T10:19:12.314Z,27.80
2019-05-15T10:21:52.486Z,35.83
2019-05-15T10:24:21.235Z,18.20
2019-05-15T10:26:57.973Z,27.25
2019-05-15T10:29:30.453Z,16.00
2019-05-15T10:32:04.075Z,14.65
2019-05-15T10:34:58.636Z,16.07
2019-05-15T10:37:33.716Z,14.65
2019-05-15T10:40:20.401Z,17.02
2019-05-15T10:42:54.273Z,15.32
2019-05-15T10:45:29.576Z,16.30
2019-05-15T10:48:03.445Z,13.72
2019-05-15T10:50:38.792Z,16.67
2019-05-15T10:53:12.535Z,15.95
2019-05-15T10:55:55.776Z,16.67
2019-05-15T10:58:29.383Z,14.23
2019-05-15T11:01:04.175Z,14.87
2019-05-15T11:43:22.866Z,11.65
2019-05-15T11:45:58.778Z,11.08
2019-05-15T11:48:31.844Z,11.40
2019-05-15T11:51:05.755Z,12.05
2019-05-15T11:53:39.925Z,11.75
2019-05-15T11:56:13.697Z,11.05
2019-05-15T13:04:52.319Z,17.05
2019-05-15T13:07:26.025Z,14.43
2019-05-15T13:09:59.879Z,14.63
2019-05-15T13:12:33.560Z,26.33
2019-05-15T13:15:09.241Z,25.15
2019-05-15T13:17:42.914Z,19.15
2019-05-15T13:20:18.451Z,20.45
2019-05-15T13:22:52.177Z,18.98
2019-05-15T13:25:28.364Z,20.08
2019-05-15T13:28:01.994Z,23.57
2019-05-15T13:30:40.846Z,24.15
2019-05-15T13:33:11.567Z,22.90
2019-05-15T13:35:45.713Z,26.70
2019-05-15T13:38:19.394Z,21.73
2019-05-15T13:40:53.120Z,25.30
2019-05-15T13:43:29.289Z,26.85
2019-05-15T13:46:03.850Z,25.97
2019-05-15T13:48:38.585Z,28.50
2019-05-15T13:51:12.534Z,27.32
2019-05-15T13:53:49.074Z,26.12
2019-05-15T13:56:22.261Z,24.40
2019-05-15T13:58:58.696Z,25.97
2019-05-15T14:01:32.578Z,29.32
2019-05-15T14:04:08.364Z,28.35
2019-05-15T14:06:42.106Z,27.82
2019-05-15T14:09:15.694Z,30.25
2019-05-15T14:11:49.809Z,36.58
2019-05-15T14:14:23.508Z,103.00
2019-05-15T14:16:59.259Z,145.22
2019-05-15T14:19:33.491Z,57.17
2019-05-15T14:22:08.019Z,107.97
2019-05-15T14:24:41.790Z,27.52
2019-05-15T14:27:15.370Z,31.20
2019-05-15T14:29:49.008Z,23.80
2019-05-15T14:32:35.501Z,26.68
2019-05-15T14:35:02.676Z,21.37
2019-05-15T14:37:36.321Z,18.42
2019-05-15T14:40:13.082Z,22.77
2019-05-15T14:42:48.640Z,20.17
2019-05-15T14:45:22.085Z,19.45
2019-05-15T14:47:58.150Z,20.48
2019-05-15T14:50:31.927Z,18.25
2019-05-15T14:53:06.285Z,21.70
2019-05-15T14:55:43.926Z,23.05
2019-05-15T14:58:15.515Z,50.78
2019-05-15T15:00:49.967Z,30.40
2019-05-15T15:03:23.924Z,99.00
2019-05-15T15:05:58.248Z,75.83
2019-05-15T15:08:32.795Z,35.33
2019-05-15T15:11:08.803Z,19.73
2019-05-15T15:13:42.182Z,23.32
2019-05-15T15:16:19.120Z,24.98
2019-05-15T15:18:51.112Z,23.92
2019-05-15T15:21:24.863Z,26.25
2019-05-15T15:23:58.843Z,30.70
2019-05-15T15:26:32.503Z,27.00
2019-05-15T15:29:10.563Z,34.20
2019-05-15T15:31:44.133Z,21.87
2019-05-15T15:34:19.599Z,22.20
2019-05-15T15:36:53.204Z,26.00
2019-05-15T15:39:28.094Z,27.27
2019-05-15T15:42:01.959Z,28.42
2019-05-15T15:44:37.980Z,63.35
2019-05-15T15:47:11.227Z,24.23
2019-05-15T15:49:48.018Z,35.40
2019-05-15T15:52:22.692Z,28.83
2019-05-15T15:54:57.473Z,19.12
2019-05-15T15:57:31.309Z,25.75
2019-05-15T16:00:08.795Z,25.20
2019-05-15T16:02:42.732Z,30.95
2019-05-15T16:05:18.872Z,20.62
2019-05-15T16:07:51.889Z,18.85
2019-05-15T16:10:25.691Z,25.17
2019-05-15T16:13:00.773Z,22.98
2019-05-15T16:15:34.365Z,23.30
2019-05-15T16:18:15.070Z,32.63
2019-05-15T16:20:54.498Z,30.40
2019-05-15T16:23:28.451Z,50.03
2019-05-15T16:26:02.459Z,28.17
2019-05-15T16:28:39.078Z,41.65
2019-05-15T16:31:12.714Z,35.20
2019-05-15T16:33:48.034Z,26.45
2019-05-15T16:36:22.530Z,33.05
2019-05-15T16:39:05.199Z,32.90
2019-05-15T16:41:31.494Z,44.45
2019-05-15T16:44:05.134Z,133.12
2019-05-15T16:46:39.244Z,213.85
2019-05-15T16:49:12.953Z,276.52
2019-05-15T16:51:48.999Z,298.80
2019-05-15T16:54:21.894Z,44.35
2019-05-15T16:56:55.568Z,42.13
2019-05-15T16:59:35.550Z,41.90
2019-05-15T17:02:04.449Z,95.05
2019-05-15T17:04:38.294Z,26.40
2019-05-15T17:07:13.024Z,43.95
2019-05-15T17:09:48.081Z,98.30
2019-05-15T17:12:21.811Z,37.60
2019-05-15T17:14:58.081Z,55.25
2019-05-15T17:17:30.769Z,61.95
2019-05-15T17:20:06.175Z,50.45
2019-05-15T17:22:39.793Z,80.32
2019-05-15T17:25:14.698Z,65.67
2019-05-15T17:27:48.293Z,41.77
2019-05-15T17:30:23.617Z,40.08
2019-05-15T17:32:57.421Z,34.60
2019-05-15T17:35:31.113Z,29.48
2019-05-15T17:38:04.747Z,37.70
2019-05-15T17:40:39.787Z,37.05
2019-05-15T17:43:13.359Z,37.65
2019-05-15T17:45:48.143Z,37.70
2019-05-15T17:48:21.870Z,36.35
2019-05-15T17:50:58.290Z,30.85
2019-05-15T17:53:31.630Z,72.00
2019-05-15T17:56:05.282Z,29.00
2019-05-15T17:58:38.878Z,37.35
2019-05-15T18:01:12.797Z,36.75
2019-05-15T18:03:48.527Z,29.98
2019-05-15T18:06:23.096Z,28.40
2019-05-15T18:08:59.324Z,33.18
2019-05-15T18:11:33.492Z,28.83
2019-05-15T18:14:08.907Z,31.68
2019-05-15T18:16:42.877Z,30.37
2019-05-15T18:19:18.633Z,33.48
2019-05-15T18:21:51.651Z,33.00
2019-05-15T18:24:25.321Z,33.33
2019-05-15T18:26:59.142Z,32.58
2019-05-15T18:29:32.902Z,34.90
2019-05-15T18:32:08.680Z,31.73
2019-05-15T18:34:42.621Z,33.02
2019-05-15T18:37:16.410Z,31.73
2019-05-15T18:40:01.145Z,31.37
2019-05-15T18:42:29.093Z,32.42
2019-05-15T18:45:02.025Z,50.98
2019-05-15T18:47:38.896Z,38.02
2019-05-15T18:50:14.128Z,31.97
2019-05-15T18:52:48.809Z,31.62
2019-05-15T18:55:22.502Z,71.25
2019-05-15T18:57:58.469Z,40.17
2019-05-15T19:00:36.036Z,39.75
2019-05-15T19:03:18.773Z,34.18
2019-05-15T19:05:43.994Z,35.70
2019-05-15T19:08:18.866Z,38.40
2019-05-15T19:10:53.620Z,63.85
2019-05-15T19:13:28.574Z,34.58
2019-05-15T19:16:02.150Z,30.05
2019-05-15T19:18:35.759Z,48.33
2019-05-15T19:21:09.353Z,31.05
2019-05-15T19:23:42.934Z,27.00
2019-05-15T19:26:18.271Z,64.62
2019-05-15T19:28:53.595Z,47.90
2019-05-15T19:31:30.515Z,30.12
2019-05-15T19:34:02.562Z,36.42
2019-05-15T19:36:38.132Z,34.27
2019-05-15T19:39:11.475Z,31.42
2019-05-15T19:41:45.067Z,31.97
2019-05-15T19:44:18.805Z,34.65
2019-05-15T19:46:52.385Z,83.27
2019-05-15T19:49:26.029Z,61.13
2019-05-15T19:51:59.632Z,50.35
2019-05-15T19:54:33.269Z,34.38
2019-05-15T19:57:08.122Z,31.65
2019-05-15T19:59:44.045Z,28.67
2019-05-15T20:02:19.369Z,25.17
2019-05-15T20:04:53.005Z,24.82
2019-05-15T20:07:28.650Z,26.62
2019-05-15T20:10:02.420Z,28.55
2019-05-15T20:12:38.910Z,28.60
2019-05-15T20:15:14.215Z,29.87
2019-05-15T20:17:47.960Z,39.33
2019-05-15T20:20:21.640Z,33.30
2019-05-15T20:22:55.417Z,31.50
2019-05-15T20:25:32.062Z,82.27
2019-05-15T20:28:08.272Z,49.27
2019-05-15T20:30:41.089Z,28.77
2019-05-15T20:33:17.976Z,26.40
2019-05-15T20:35:51.763Z,29.80
2019-05-15T20:38:25.312Z,32.42
2019-05-15T20:40:59.721Z,38.53
2019-05-15T20:43:38.443Z,49.13
2019-05-15T20:46:14.361Z,40.70
2019-05-15T20:48:48.798Z,37.20
2019-05-15T20:51:22.611Z,32.93
2019-05-15T20:53:57.825Z,29.87
2019-05-15T20:56:33.352Z,36.03
2019-05-15T20:59:11.390Z,32.42
2019-05-15T21:01:45.073Z,30.40
2019-05-15T21:04:22.461Z,26.17
2019-05-15T21:06:55.375Z,30.70
2019-05-15T21:09:30.706Z,29.30
2019-05-15T21:12:04.493Z,30.40
2019-05-15T21:14:40.091Z,30.45
2019-05-15T21:17:14.296Z,28.87
2019-05-15T21:19:49.111Z,31.27
2019-05-15T21:22:23.784Z,28.30
2019-05-15T21:24:57.459Z,26.52
2019-05-15T21:27:43.322Z,25.75
2019-05-15T21:30:18.891Z,23.60
2019-05-15T21:32:52.887Z,26.07
2019-05-15T21:35:27.691Z,22.00
2019-05-15T21:40:52.796Z,22.37
2019-05-15T21:43:26.530Z,21.12
2019-05-15T21:46:08.011Z,21.40
2019-05-15T21:48:41.605Z,21.50
2019-05-15T21:51:15.178Z,21.23
2019-05-15T21:53:49.740Z,22.37
2019-05-15T21:56:23.443Z,21.25
2019-05-15T21:58:58.187Z,21.30
2019-05-15T22:01:32.452Z,19.45
2019-05-15T22:04:07.619Z,20.10
2019-05-15T22:06:41.225Z,16.12
2019-05-15T22:09:18.364Z,17.73
2019-05-15T22:11:51.779Z,18.32
2019-05-15T22:14:35.033Z,19.45
2019-05-15T22:17:09.664Z,19.12
2019-05-15T22:19:44.933Z,20.75
2019-05-15T22:22:18.641Z,21.30
2019-05-15T22:24:52.195Z,19.40
2019-05-15T22:27:25.774Z,20.75
2019-05-15T22:29:59.331Z,19.95
2019-05-15T22:32:33.441Z,19.75
2019-05-15T22:35:13.613Z,17.77
2019-05-15T22:37:45.387Z,19.55
2019-05-15T22:40:38.028Z,19.70
2019-05-15T22:43:11.987Z,19.32
2019-05-15T22:45:48.304Z,19.92
2019-05-15T22:48:22.268Z,17.40
2019-05-15T22:50:55.749Z,16.70
2019-05-15T22:53:29.347Z,19.25
2019-05-15T22:56:03.039Z,18.73
2019-05-15T22:58:38.550Z,19.12
2019-05-15T23:01:11.872Z,17.85
2019-05-15T23:03:47.728Z,18.57
2019-05-15T23:06:20.774Z,20.55
2019-05-15T23:08:54.511Z,18.75
2019-05-15T23:11:29.935Z,17.55
2019-05-15T23:14:03.512Z,19.37
2019-05-15T23:16:38.984Z,19.42
2019-05-15T23:19:13.313Z,19.77
2019-05-15T23:21:48.656Z,18.98
2019-05-15T23:24:22.751Z,19.20
2019-05-15T23:26:58.295Z,20.37
2019-05-15T23:29:32.254Z,21.45
2019-05-15T23:32:07.789Z,21.97
2019-05-15T23:34:41.061Z,17.67
2019-05-15T23:37:14.721Z,18.45
2019-05-15T23:39:48.760Z,19.57
2019-05-15T23:42:22.291Z,18.70
2019-05-15T23:44:58.945Z,19.23
2019-05-15T23:47:45.884Z,18.52
2019-05-15T23:50:19.462Z,22.85
2019-05-15T23:52:54.024Z,22.45
2019-05-15T23:55:28.560Z,25.60
2019-05-15T23:58:02.713Z,22.73
